Daleville, AL

8:20 AM CDT on July 07, 2015 (GMT -0500)
Cairns Army Air Field | | Change Station
CLOSE
Current Station
Airport
Location: Ozark,
Elevation: 299 ft
Nearby Weather Stations

Elev 299 ft 31.28 °N, 85.71 °W | Updated 22 minutes ago

Clear
Clear
78 °F
Feels Like 78 °F
N
5
Wind Variable Wind from WNW

Today
High -- | Low -- °F
--% Chance of Precip.
Yesterday
High -- | Low -- °F
Precip. -- in
5:44 AM 7:50 PM
Waning Gibbous, 65% visible
Pressure 30.17 in
Visibility 10.0 miles
Clouds Clear
Dew Point 73 °F
Humidity 87%
Rainfall 0.00 in
Snow Depth Not available.
UV 2 out of 12
Pollen 2.90 out of 12
Air Quality Not available.
Flu Activity Not available.
METAR KOZR 071258Z AUTO 29004KT 10SM CLR 25/23 A3017 RMK AO2 SLP216 T02530230 $

More Conditions Fewer Conditions

Pressure 30.17 in
Visibility 10.0 miles
Clouds Clear
Dew Point 73 °F
Humidity 87%
Rainfall 0.00 in
Snow Depth Not available.
UV 2 out of 12
Pollen 2.90 out of 12
Air Quality Not available.
Flu Activity Not available.
METAR KOZR 071258Z AUTO 29004KT 10SM CLR 25/23 A3017 RMK AO2 SLP216 T02530230 $

More Conditions Fewer Conditions

10-Day Weather Forecast

×

Almanac

Astronomy

Jul. 07, 2015 Rise Set
Actual Time
Civil Twilight
Nautical Twilight
Astronomical Twilight
Moon
Length of Visible Light
Length of Day
Tomorrow will be .
, % of the Moon is Illuminated

Today's Extremes

State Highs State Lows

Community

WunderPhotos

Upload Photos

1,835,792 photos uploaded!

WunderBlogs® & News

Nearby

Air Quality

  Air Quality AQ Index Pollutant
Not available.

Snow Depth

Station Depth Elevation

Earthquake Activity

City Distance Mag. Time & Date
Minimum magnitude displayed is 2.5.

Coastal Water Temperatures

Place Temperature

Stations

Nearby Weather Stations

Station Location Temp. Windchill Dew Point Humidity Wind Precip. Elev Updated Type